createdAt,value
2023-05-09T00:11:14.638Z,1.20
2023-05-09T00:14:23.746Z,1.40
2023-05-09T00:17:53.538Z,1.00
2023-05-09T00:20:40.883Z,1.30
2023-05-09T00:23:47.980Z,1.10
2023-05-09T00:27:15.182Z,1.30
2023-05-09T00:30:27.695Z,1.10
2023-05-09T00:33:58.345Z,1.20
2023-05-09T00:37:45.230Z,1.20
2023-05-09T00:41:13.517Z,1.60
2023-05-09T01:23:42.473Z,1.30
2023-05-09T01:36:17.005Z,1.40
2023-05-09T01:39:47.778Z,1.20
2023-05-09T01:42:19.843Z,1.20
2023-05-09T01:45:18.984Z,1.20
2023-05-09T01:48:36.408Z,1.20
2023-05-09T01:51:52.677Z,1.50
2023-05-09T01:55:22.326Z,1.50
2023-05-09T01:58:13.918Z,1.50
2023-05-09T02:01:49.716Z,1.30
2023-05-09T02:04:53.095Z,1.60
2023-05-09T02:07:26.836Z,1.90
2023-05-09T02:10:17.373Z,1.40
2023-05-09T02:13:09.314Z,1.00
2023-05-09T03:09:34.434Z,1.70
2023-05-09T04:00:46.545Z,1.90
2023-05-09T04:37:41.357Z,1.20
2023-05-09T04:41:16.550Z,1.80
2023-05-09T05:38:34.172Z,1.70
2023-05-09T05:41:03.327Z,1.60
2023-05-09T05:43:32.650Z,2.30
2023-05-09T05:46:01.388Z,1.80
2023-05-09T05:48:30.018Z,2.10
2023-05-09T05:51:17.969Z,1.90
2023-05-09T05:54:06.339Z,2.20
2023-05-09T05:56:35.456Z,2.20
2023-05-09T05:59:03.500Z,2.20
2023-05-09T06:01:51.737Z,2.10
2023-05-09T06:05:00.849Z,1.80
2023-05-09T06:10:37.657Z,2.00
2023-05-09T06:13:46.380Z,1.80
2023-05-09T06:16:55.155Z,2.00
2023-05-09T06:19:24.503Z,2.00
2023-05-09T06:21:53.523Z,1.80
2023-05-09T06:24:34.651Z,1.90
2023-05-09T06:27:06.106Z,2.50
2023-05-09T06:58:02.313Z,2.80
2023-05-09T07:01:11.021Z,3.40
2023-05-09T07:03:40.129Z,3.00
2023-05-09T07:06:28.717Z,2.70
2023-05-09T07:09:37.589Z,3.10
2023-05-09T07:12:27.133Z,3.60
2023-05-09T07:15:25.556Z,4.00
2023-05-09T07:17:57.824Z,2.90
2023-05-09T07:21:06.704Z,3.10
2023-05-09T08:23:31.353Z,3.20
2023-05-09T08:25:59.497Z,3.20
2023-05-09T08:28:28.801Z,2.60
2023-05-09T08:30:57.905Z,3.40
2023-05-09T08:33:46.055Z,3.30
2023-05-09T08:36:14.305Z,3.10
2023-05-09T08:39:03.816Z,2.70
2023-05-09T08:41:58.650Z,3.20
2023-05-09T08:44:28.136Z,3.10
2023-05-09T08:47:00.962Z,2.90
2023-05-09T08:49:29.322Z,2.40
2023-05-09T08:51:57.856Z,2.50
2023-05-09T08:54:26.297Z,3.50
2023-05-09T08:56:54.905Z,3.30
2023-05-09T08:59:25.326Z,3.60
2023-05-09T09:01:55.560Z,2.90
2023-05-09T09:04:23.920Z,3.20
2023-05-09T09:06:54.489Z,2.70
2023-05-09T09:09:24.068Z,3.00
2023-05-09T09:11:53.803Z,3.00
2023-05-09T09:14:28.461Z,2.80
2023-05-09T09:16:58.759Z,3.20
2023-05-09T09:19:31.689Z,3.40
2023-05-09T09:22:04.889Z,2.90
2023-05-09T09:24:36.365Z,2.70
2023-05-09T09:27:08.582Z,3.20
2023-05-09T09:29:38.906Z,2.50
2023-05-09T09:32:08.254Z,2.60
2023-05-09T09:34:38.303Z,2.40
2023-05-09T09:37:07.449Z,4.30
2023-05-09T09:39:36.546Z,3.00
2023-05-09T09:42:12.869Z,2.30
2023-05-09T09:44:42.365Z,2.20
2023-05-09T09:47:11.795Z,2.20
2023-05-09T09:49:46.898Z,2.20
2023-05-09T09:52:24.919Z,2.30
2023-05-09T09:54:56.873Z,3.00
2023-05-09T09:57:38.947Z,2.20
2023-05-09T10:00:09.612Z,1.90
2023-05-09T10:02:50.454Z,2.40
2023-05-09T10:05:21.086Z,2.00
2023-05-09T10:07:57.103Z,3.20
2023-05-09T10:10:32.387Z,2.00
2023-05-09T10:13:21.241Z,2.50
2023-05-09T10:15:53.930Z,4.60
2023-05-09T10:18:28.056Z,15.50
2023-05-09T10:21:17.877Z,19.40
2023-05-09T10:23:48.912Z,5.20
2023-05-09T10:26:30.599Z,3.00
2023-05-09T10:29:03.426Z,1.90
2023-05-09T10:31:36.700Z,2.00
2023-05-09T10:34:31.782Z,1.90
2023-05-09T10:37:01.027Z,2.10
2023-05-09T10:39:31.067Z,1.70
2023-05-09T10:42:01.071Z,2.10
2023-05-09T10:44:50.086Z,2.30
2023-05-09T10:47:19.732Z,6.60
2023-05-09T10:49:50.499Z,2.00
2023-05-09T10:53:11.976Z,2.30
2023-05-09T10:55:49.826Z,2.60
2023-05-09T10:58:34.041Z,3.30
2023-05-09T11:01:05.939Z,1.80
2023-05-09T11:04:14.906Z,2.20
2023-05-09T11:06:51.286Z,2.20
2023-05-09T11:09:25.044Z,2.40
2023-05-09T11:12:14.588Z,2.50
2023-05-09T11:14:45.589Z,2.10
2023-05-09T11:17:22.848Z,2.10
2023-05-09T11:19:51.362Z,2.10
2023-05-09T11:22:26.312Z,2.30
2023-05-09T11:25:13.315Z,3.10
2023-05-09T11:27:43.410Z,1.70
2023-05-09T11:30:16.727Z,1.70
2023-05-09T11:32:50.607Z,2.30
2023-05-09T11:35:21.831Z,2.30
2023-05-09T11:37:51.116Z,2.60
2023-05-09T11:40:21.001Z,2.40
2023-05-09T11:42:58.060Z,2.10
2023-05-09T11:45:33.253Z,1.90
2023-05-09T11:48:02.143Z,2.30
2023-05-09T11:50:30.493Z,2.50
2023-05-09T11:52:58.585Z,2.50
2023-05-09T11:55:30.034Z,2.10
2023-05-09T11:57:59.092Z,2.30
2023-05-09T12:00:27.247Z,2.20
2023-05-09T12:02:55.611Z,2.20
2023-05-09T12:05:23.898Z,1.60
2023-05-09T12:07:52.850Z,2.00
2023-05-09T12:10:23.189Z,1.70
2023-05-09T12:12:55.316Z,2.00
2023-05-09T12:15:24.291Z,2.20
2023-05-09T12:18:04.172Z,2.50
2023-05-09T12:20:42.435Z,1.90
2023-05-09T12:23:12.635Z,2.50
2023-05-09T12:25:48.193Z,2.20
2023-05-09T12:28:16.877Z,2.20
2023-05-09T12:30:45.407Z,2.40
2023-05-09T12:33:13.593Z,2.80
2023-05-09T12:35:48.738Z,1.90
2023-05-09T12:38:23.444Z,2.60
2023-05-09T12:41:06.706Z,2.10
2023-05-09T12:43:39.764Z,2.30
2023-05-09T12:46:11.306Z,2.60
2023-05-09T12:48:39.467Z,2.40
2023-05-09T12:51:08.086Z,2.60
2023-05-09T12:53:40.850Z,2.80
2023-05-09T12:56:35.738Z,2.60
2023-05-09T12:59:04.054Z,2.30
2023-05-09T13:01:32.616Z,2.10
2023-05-09T13:04:03.838Z,3.80
2023-05-09T13:06:32.373Z,2.80
2023-05-09T13:09:02.807Z,3.00
2023-05-09T13:11:30.952Z,3.90
2023-05-09T13:13:59.011Z,2.80
2023-05-09T13:16:27.175Z,4.60
2023-05-09T13:18:55.372Z,3.40
2023-05-09T13:21:23.520Z,3.60
2023-05-09T13:23:52.094Z,3.40
2023-05-09T13:26:20.300Z,3.00
2023-05-09T13:28:48.610Z,1.90
2023-05-09T13:31:16.683Z,2.30
2023-05-09T13:33:44.902Z,1.80
2023-05-09T13:36:13.053Z,2.30
2023-05-09T13:38:41.556Z,2.50
2023-05-09T13:41:10.674Z,2.40
2023-05-09T13:43:41.029Z,2.10
2023-05-09T13:46:09.101Z,2.10
2023-05-09T13:48:37.754Z,2.20
2023-05-09T13:51:07.606Z,2.30
2023-05-09T13:53:38.083Z,2.20
2023-05-09T13:56:11.867Z,2.30
2023-05-09T13:58:41.929Z,3.70
2023-05-09T14:01:11.028Z,1.90
2023-05-09T14:03:40.040Z,2.60
2023-05-09T14:06:10.524Z,2.40
2023-05-09T14:08:58.991Z,2.40
2023-05-09T14:11:48.927Z,2.90
2023-05-09T14:14:20.981Z,2.70
2023-05-09T14:16:51.053Z,3.00
2023-05-09T14:19:19.924Z,1.80
2023-05-09T14:21:50.925Z,1.90
2023-05-09T14:24:19.355Z,3.40
2023-05-09T14:26:48.098Z,2.40
2023-05-09T14:29:17.969Z,2.80
2023-05-09T14:31:47.141Z,2.30
2023-05-09T14:34:16.095Z,2.30
2023-05-09T14:36:45.945Z,2.20
2023-05-09T14:39:15.069Z,2.40
2023-05-09T14:42:04.000Z,2.80
2023-05-09T14:44:33.074Z,2.40
2023-05-09T14:47:01.505Z,2.10
2023-05-09T14:49:30.957Z,2.00
2023-05-09T14:52:00.138Z,2.10
2023-05-09T14:54:29.985Z,2.90
2023-05-09T14:56:59.962Z,3.20
2023-05-09T14:59:32.804Z,2.50
2023-05-09T15:02:25.981Z,3.10
2023-05-09T15:04:57.952Z,2.80
2023-05-09T15:07:29.944Z,2.70
2023-05-09T15:10:01.910Z,2.70
2023-05-09T15:12:34.009Z,2.20
2023-05-09T15:15:34.103Z,2.30
2023-05-09T15:18:05.970Z,2.20
2023-05-09T15:20:37.134Z,2.30
2023-05-09T15:23:08.028Z,1.90
2023-05-09T15:25:42.023Z,2.30
2023-05-09T15:28:33.882Z,2.40
2023-05-09T15:31:05.084Z,2.30
2023-05-09T15:33:37.244Z,2.40
2023-05-09T15:36:09.967Z,2.70
2023-05-09T15:38:41.278Z,2.10
2023-05-09T15:41:13.008Z,2.90
2023-05-09T15:43:45.008Z,2.40
2023-05-09T15:46:17.127Z,2.40
2023-05-09T15:48:48.278Z,2.50
2023-05-09T15:51:20.030Z,2.40
2023-05-09T15:53:51.972Z,2.50
2023-05-09T16:04:34.383Z,2.40
2023-05-09T16:07:02.508Z,2.20
2023-05-09T16:09:30.498Z,2.60
2023-05-09T16:11:58.472Z,2.20
2023-05-09T16:14:26.559Z,2.90
2023-05-09T16:16:54.584Z,2.60
2023-05-09T16:19:22.708Z,2.30
2023-05-09T16:21:50.822Z,2.10
2023-05-09T16:24:19.019Z,2.40
2023-05-09T16:26:46.985Z,2.40
2023-05-09T16:29:14.985Z,2.10
2023-05-09T16:31:45.020Z,2.50
2023-05-09T16:34:13.369Z,2.60
2023-05-09T16:36:41.412Z,2.60
2023-05-09T16:39:09.849Z,2.40
2023-05-09T16:41:57.989Z,2.30
2023-05-09T16:44:26.613Z,3.00
2023-05-09T16:46:54.987Z,2.70
2023-05-09T16:49:23.393Z,2.90
2023-05-09T16:51:51.538Z,3.50
2023-05-09T16:54:19.968Z,3.60
2023-05-09T16:56:48.357Z,3.10
2023-05-09T16:59:17.657Z,2.80
2023-05-09T17:01:47.404Z,3.70
2023-05-09T17:04:15.683Z,4.00
2023-05-09T17:06:44.125Z,4.00
2023-05-09T17:09:13.281Z,3.10
2023-05-09T17:11:41.863Z,2.90
2023-05-09T17:14:10.346Z,3.40
2023-05-09T17:16:38.793Z,3.30
2023-05-09T17:19:06.819Z,8.10
2023-05-09T17:21:35.632Z,7.60
2023-05-09T17:24:04.453Z,9.40
2023-05-09T17:26:33.405Z,3.80
2023-05-09T17:29:03.824Z,6.50
2023-05-09T17:31:32.453Z,3.90
2023-05-09T17:34:01.563Z,3.60
2023-05-09T17:36:29.889Z,3.00
2023-05-09T17:38:58.582Z,3.60
2023-05-09T17:41:28.400Z,7.30
2023-05-09T17:43:57.547Z,6.00
2023-05-09T17:46:26.576Z,4.00
2023-05-09T17:48:55.185Z,3.40
2023-05-09T17:51:23.984Z,3.90
2023-05-09T17:53:52.936Z,3.70
2023-05-09T17:56:22.546Z,3.40
2023-05-09T17:58:54.097Z,4.10
2023-05-09T18:01:43.161Z,4.10
2023-05-09T18:04:13.690Z,4.80
2023-05-09T18:06:43.085Z,4.00
2023-05-09T18:09:12.454Z,3.40
2023-05-09T18:11:42.099Z,4.80
2023-05-09T18:14:11.352Z,3.90
2023-05-09T18:16:40.990Z,4.20
2023-05-09T18:19:09.751Z,3.40
2023-05-09T18:21:38.785Z,3.80
2023-05-09T18:24:09.283Z,3.70
2023-05-09T18:26:38.105Z,3.60
2023-05-09T18:29:06.810Z,4.90
2023-05-09T18:31:38.755Z,3.80
2023-05-09T18:34:07.912Z,4.00
2023-05-09T18:36:36.161Z,3.20
2023-05-09T18:39:04.654Z,3.90
2023-05-09T18:41:34.117Z,3.20
2023-05-09T18:44:02.473Z,3.60
2023-05-09T18:46:33.818Z,4.30
2023-05-09T18:49:04.275Z,3.70
2023-05-09T18:51:35.988Z,3.90
2023-05-09T18:54:04.388Z,11.90
2023-05-09T18:56:39.084Z,5.80
2023-05-09T18:59:09.470Z,4.40
2023-05-09T19:01:38.050Z,3.60
2023-05-09T19:04:07.140Z,3.50
2023-05-09T19:06:35.272Z,3.70
2023-05-09T19:09:04.414Z,3.70
2023-05-09T19:11:32.644Z,4.00
2023-05-09T19:14:00.733Z,4.10
2023-05-09T19:16:28.810Z,4.30
2023-05-09T19:18:58.244Z,4.30
2023-05-09T19:21:26.336Z,4.40
2023-05-09T19:23:54.268Z,3.70
2023-05-09T19:26:22.240Z,4.00
2023-05-09T19:28:50.293Z,3.90
2023-05-09T19:31:20.424Z,3.80
2023-05-09T19:33:50.671Z,4.40
2023-05-09T19:36:18.812Z,4.10
2023-05-09T19:39:06.762Z,3.90
2023-05-09T19:41:34.818Z,4.60
2023-05-09T19:44:02.764Z,5.00
2023-05-09T19:46:30.802Z,4.50
2023-05-09T19:48:58.854Z,4.30
2023-05-09T19:51:27.038Z,5.30
2023-05-09T19:53:55.376Z,4.60
2023-05-09T19:56:23.300Z,4.80
2023-05-09T19:58:51.304Z,4.20
2023-05-09T20:01:20.009Z,4.40
2023-05-09T20:03:50.381Z,3.60
2023-05-09T20:06:19.278Z,3.60
2023-05-09T20:08:47.665Z,4.00
2023-05-09T20:11:15.830Z,3.70
2023-05-09T20:14:04.738Z,3.70
2023-05-09T20:16:33.354Z,3.50
2023-05-09T20:19:01.627Z,3.70
2023-05-09T20:21:29.753Z,3.30
2023-05-09T20:23:57.812Z,3.40
2023-05-09T20:26:26.376Z,3.40
2023-05-09T20:28:59.122Z,3.60
2023-05-09T20:31:31.048Z,3.50
2023-05-09T20:33:59.317Z,6.50
2023-05-09T20:36:28.566Z,4.40
2023-05-09T20:38:57.595Z,4.00
2023-05-09T20:41:25.646Z,4.10
2023-05-09T20:43:53.712Z,3.40
2023-05-09T20:46:21.873Z,3.40
2023-05-09T20:48:52.404Z,3.50
2023-05-09T20:51:20.335Z,3.10
2023-05-09T20:53:48.404Z,3.10
2023-05-09T20:56:16.468Z,3.40
2023-05-09T20:58:44.405Z,4.10
2023-05-09T21:01:12.470Z,3.40
2023-05-09T21:03:41.099Z,4.10
2023-05-09T21:06:09.306Z,3.80
2023-05-09T21:08:37.506Z,3.80
2023-05-09T21:11:05.506Z,4.10
2023-05-09T21:13:33.559Z,3.70
2023-05-09T21:16:01.935Z,4.10
2023-05-09T21:18:29.981Z,3.90
2023-05-09T21:21:02.185Z,4.20
2023-05-09T21:23:30.322Z,4.30
2023-05-09T21:25:58.362Z,4.00
2023-05-09T21:28:27.211Z,4.30
2023-05-09T21:30:55.641Z,4.50
2023-05-09T21:33:23.667Z,5.20
2023-05-09T21:35:51.556Z,5.20
2023-05-09T21:38:19.515Z,4.80
2023-05-09T21:40:47.525Z,4.50
2023-05-09T21:43:15.551Z,4.70
2023-05-09T21:45:44.074Z,5.30
2023-05-09T21:48:12.098Z,4.90
2023-05-09T21:50:40.115Z,4.50
2023-05-09T21:53:08.067Z,4.50
2023-05-09T21:55:36.101Z,4.80
2023-05-09T21:58:04.246Z,4.60
2023-05-09T22:00:32.202Z,4.30
2023-05-09T22:03:00.343Z,5.00
2023-05-09T22:05:28.488Z,5.20
2023-05-09T22:07:56.512Z,4.30
2023-05-09T22:10:24.585Z,4.30
2023-05-09T22:12:53.368Z,4.50
2023-05-09T22:15:22.108Z,5.20
2023-05-09T22:17:50.393Z,4.70
2023-05-09T22:20:38.398Z,4.70
2023-05-09T22:23:06.573Z,4.60
2023-05-09T22:25:34.712Z,4.80
2023-05-09T22:28:02.749Z,4.80
2023-05-09T22:30:31.095Z,5.00
2023-05-09T22:33:00.217Z,5.70
2023-05-09T22:35:28.375Z,5.30
2023-05-09T22:37:56.755Z,5.00
2023-05-09T22:40:24.813Z,4.60
2023-05-09T22:42:53.640Z,4.50
2023-05-09T22:45:22.283Z,4.60
2023-05-09T22:47:50.484Z,5.10
2023-05-09T22:50:19.018Z,4.80
2023-05-09T22:52:47.429Z,5.10
2023-05-09T22:55:15.540Z,4.50
2023-05-09T22:57:43.576Z,4.40
2023-05-09T23:00:12.357Z,4.90
2023-05-09T23:02:40.564Z,4.50
2023-05-09T23:05:09.360Z,4.40
2023-05-09T23:07:37.529Z,4.60
2023-05-09T23:10:06.080Z,4.10
2023-05-09T23:12:34.107Z,4.20
2023-05-09T23:15:02.273Z,4.30
2023-05-09T23:17:30.417Z,3.60
2023-05-09T23:20:00.707Z,3.50
2023-05-09T23:22:28.784Z,3.80
2023-05-09T23:25:16.786Z,3.80
2023-05-09T23:28:04.649Z,3.90
2023-05-09T23:30:32.690Z,4.00
2023-05-09T23:33:20.648Z,4.30
2023-05-09T23:35:48.670Z,3.40
2023-05-09T23:38:17.262Z,3.60
2023-05-09T23:40:46.281Z,3.90
2023-05-09T23:43:14.270Z,3.80
2023-05-09T23:45:42.704Z,4.10
2023-05-09T23:48:11.359Z,4.20
2023-05-09T23:50:39.362Z,4.30
2023-05-09T23:53:07.496Z,4.60
2023-05-09T23:55:35.430Z,4.50
2023-05-09T23:58:03.480Z,4.30
